createdAt,value
2019-01-25T00:00:24.307Z,24.97
2019-01-25T00:02:57.271Z,21.67
2019-01-25T00:05:27.895Z,23.63
2019-01-25T00:07:58.006Z,19.97
2019-01-25T00:10:30.071Z,25.20
2019-01-25T00:13:00.025Z,26.03
2019-01-25T00:15:35.321Z,23.20
2019-01-25T00:18:06.439Z,26.63
2019-01-25T00:20:39.560Z,23.77
2019-01-25T00:23:09.755Z,24.27
2019-01-25T00:25:50.569Z,24.13
2019-01-25T00:28:32.229Z,24.30
2019-01-25T00:31:11.755Z,23.53
2019-01-25T00:33:41.715Z,23.57
2019-01-25T00:36:11.739Z,28.20
2019-01-25T00:38:41.595Z,24.20
2019-01-25T00:41:11.810Z,22.83
2019-01-25T00:43:41.624Z,24.10
2019-01-25T00:46:13.174Z,27.23
2019-01-25T00:48:42.974Z,24.37
2019-01-25T00:51:12.790Z,19.73
2019-01-25T00:53:43.010Z,20.00
2019-01-25T00:56:15.502Z,20.63
2019-01-25T00:58:45.440Z,20.50
2019-01-25T01:01:16.052Z,20.37
2019-01-25T01:03:46.203Z,23.40
2019-01-25T01:06:16.679Z,21.50
2019-01-25T01:08:54.275Z,20.77
2019-01-25T01:11:27.020Z,18.93
2019-01-25T01:13:56.875Z,17.20
2019-01-25T01:16:28.536Z,20.30
2019-01-25T01:19:01.759Z,15.90
2019-01-25T01:21:31.705Z,19.20
2019-01-25T01:24:04.243Z,14.77
2019-01-25T01:26:37.059Z,20.40
2019-01-25T01:29:12.744Z,30.63
2019-01-25T01:31:43.717Z,20.70
2019-01-25T01:34:13.534Z,25.87
2019-01-25T01:36:50.928Z,29.07
2019-01-25T01:39:20.739Z,18.17
2019-01-25T01:41:50.569Z,24.63
2019-01-25T01:44:20.493Z,44.20
2019-01-25T01:46:50.805Z,29.30
2019-01-25T01:49:20.669Z,30.73
2019-01-25T01:51:50.530Z,23.37
2019-01-25T01:54:30.194Z,18.97
2019-01-25T01:57:00.071Z,17.00
2019-01-25T01:59:30.389Z,24.83
2019-01-25T02:02:00.269Z,22.60
2019-01-25T02:04:30.155Z,15.67
2019-01-25T02:07:00.346Z,18.40
2019-01-25T02:09:30.614Z,23.37
2019-01-25T02:12:01.017Z,25.07
2019-01-25T02:14:30.965Z,27.07
2019-01-25T02:17:04.216Z,23.60
2019-01-25T02:19:39.786Z,21.50
2019-01-25T02:22:10.199Z,24.43
2019-01-25T02:24:41.470Z,21.50
2019-01-25T02:27:19.339Z,21.10
2019-01-25T02:30:00.643Z,27.27
2019-01-25T02:32:32.876Z,26.90
2019-01-25T02:35:11.698Z,29.03
2019-01-25T02:38:02.421Z,25.63
2019-01-25T02:40:39.128Z,24.80
2019-01-25T02:43:07.029Z,25.47
2019-01-25T02:45:39.108Z,26.03
2019-01-25T02:48:09.240Z,25.60
2019-01-25T02:50:39.280Z,27.70
2019-01-25T02:53:09.314Z,26.17
2019-01-25T02:55:42.291Z,26.03
2019-01-25T02:58:22.384Z,24.97
2019-01-25T03:00:55.129Z,28.43
2019-01-25T03:03:25.052Z,23.03
2019-01-25T03:05:55.304Z,23.60
2019-01-25T03:08:25.515Z,24.27
2019-01-25T03:10:55.311Z,25.00
2019-01-25T03:13:25.080Z,24.43
2019-01-25T03:15:55.465Z,27.60
2019-01-25T03:18:25.380Z,27.13
2019-01-25T03:20:55.203Z,26.37
2019-01-25T03:23:25.078Z,25.07
2019-01-25T03:25:55.064Z,23.93
2019-01-25T03:28:24.917Z,23.67
2019-01-25T03:30:55.175Z,25.67
2019-01-25T03:33:25.361Z,19.23
2019-01-25T03:35:55.178Z,21.03
2019-01-25T03:38:24.974Z,24.83
2019-01-25T03:40:55.490Z,25.33
2019-01-25T03:43:25.684Z,25.57
2019-01-25T03:45:58.271Z,25.23
2019-01-25T03:48:31.184Z,22.73
2019-01-25T03:51:01.148Z,29.07
2019-01-25T03:53:31.316Z,37.27
2019-01-25T03:56:01.149Z,27.43
2019-01-25T03:58:31.046Z,26.10
2019-01-25T04:01:00.869Z,24.17
2019-01-25T04:03:30.983Z,24.63
2019-01-25T04:06:01.609Z,34.50
2019-01-25T04:08:31.427Z,32.10
2019-01-25T04:11:03.550Z,20.97
2019-01-25T04:13:34.305Z,26.60
2019-01-25T04:16:04.095Z,25.33
2019-01-25T04:18:33.884Z,24.23
2019-01-25T04:21:03.719Z,24.33
2019-01-25T04:23:33.596Z,21.80
2019-01-25T04:26:04.163Z,29.47
2019-01-25T04:28:34.358Z,26.20
2019-01-25T04:31:04.149Z,27.77
2019-01-25T04:33:34.484Z,28.93
2019-01-25T04:36:04.283Z,25.40
2019-01-25T04:38:34.132Z,26.40
2019-01-25T04:41:11.164Z,28.43
2019-01-25T04:43:35.611Z,30.77
2019-01-25T04:46:05.494Z,25.50
2019-01-25T04:48:59.443Z,28.60
2019-01-25T04:51:29.373Z,26.23
2019-01-25T04:53:59.348Z,24.97
2019-01-25T04:56:32.360Z,27.37
2019-01-25T04:59:02.184Z,25.63
2019-01-25T05:01:40.914Z,25.73
2019-01-25T05:04:16.109Z,27.10
2019-01-25T05:06:53.029Z,26.00
2019-01-25T05:09:32.527Z,29.53
2019-01-25T05:12:13.492Z,28.30
2019-01-25T05:14:43.412Z,26.83
2019-01-25T05:17:13.204Z,28.40
2019-01-25T05:19:43.030Z,27.97
2019-01-25T05:22:18.524Z,40.27
2019-01-25T05:24:48.438Z,35.60
2019-01-25T05:27:18.462Z,29.90
2019-01-25T05:29:57.894Z,28.43
2019-01-25T05:32:28.004Z,27.67
2019-01-25T05:34:57.929Z,28.40
2019-01-25T05:37:28.019Z,26.77
2019-01-25T05:39:58.479Z,29.33
2019-01-25T05:42:28.468Z,28.73
2019-01-25T05:44:58.320Z,25.83
2019-01-25T05:47:29.205Z,27.27
2019-01-25T05:49:59.133Z,27.57
2019-01-25T05:52:29.330Z,29.60
2019-01-25T05:54:59.369Z,27.63
2019-01-25T05:57:29.139Z,25.40
2019-01-25T05:59:59.231Z,25.53
2019-01-25T06:02:29.168Z,28.90
2019-01-25T06:05:20.340Z,27.90
2019-01-25T06:07:50.243Z,27.60
2019-01-25T06:10:20.109Z,27.37
2019-01-25T06:12:54.623Z,30.40
2019-01-25T06:15:26.818Z,27.97
2019-01-25T06:18:01.638Z,23.47
2019-01-25T06:20:31.834Z,24.30
2019-01-25T06:23:03.289Z,27.37
2019-01-25T06:25:33.668Z,28.00
2019-01-25T06:28:07.008Z,29.37
2019-01-25T06:30:37.406Z,29.10
2019-01-25T06:33:07.717Z,29.67
2019-01-25T06:35:37.493Z,29.60
2019-01-25T06:38:07.372Z,28.30
2019-01-25T06:40:37.222Z,31.57
2019-01-25T06:43:07.328Z,26.97
2019-01-25T06:45:37.301Z,31.60
2019-01-25T06:48:07.307Z,30.10
2019-01-25T06:50:49.523Z,29.33
2019-01-25T06:53:19.386Z,31.83
2019-01-25T06:55:49.282Z,31.83
2019-01-25T06:58:28.548Z,28.67
2019-01-25T07:01:17.191Z,30.47
2019-01-25T07:03:47.654Z,32.40
2019-01-25T07:06:21.206Z,31.87
2019-01-25T07:08:53.863Z,31.60
2019-01-25T07:11:23.671Z,32.37
2019-01-25T07:13:56.232Z,34.37
2019-01-25T07:16:27.392Z,32.10
2019-01-25T07:18:57.491Z,32.90
2019-01-25T07:21:50.707Z,33.33
2019-01-25T07:24:20.667Z,30.90
2019-01-25T07:26:50.506Z,31.57
2019-01-25T07:29:20.780Z,32.93
2019-01-25T07:31:55.128Z,32.00
2019-01-25T07:34:28.109Z,31.10
2019-01-25T07:37:13.966Z,33.40
2019-01-25T07:39:44.087Z,34.47
2019-01-25T07:42:16.463Z,31.73
2019-01-25T07:44:46.692Z,31.07
2019-01-25T07:47:16.838Z,31.67
2019-01-25T07:49:46.677Z,34.00
2019-01-25T07:52:17.127Z,32.53
2019-01-25T07:54:59.496Z,34.27
2019-01-25T07:57:29.321Z,29.83
2019-01-25T07:59:59.140Z,31.60
2019-01-25T08:02:29.828Z,34.80
2019-01-25T08:05:07.987Z,30.93
2019-01-25T08:07:38.132Z,34.30
2019-01-25T08:10:11.038Z,31.43
2019-01-25T08:12:46.068Z,29.37
2019-01-25T08:15:18.480Z,35.33
2019-01-25T08:17:48.782Z,31.97
2019-01-25T08:20:19.000Z,30.60
2019-01-25T08:22:48.964Z,33.17
2019-01-25T08:25:19.454Z,28.10
2019-01-25T08:27:49.299Z,23.27
2019-01-25T08:30:19.471Z,28.23
2019-01-25T08:32:50.629Z,21.17
2019-01-25T08:35:21.148Z,25.83
2019-01-25T08:37:51.184Z,27.00
2019-01-25T08:40:21.187Z,28.97
2019-01-25T08:42:51.391Z,24.10
2019-01-25T08:45:21.373Z,22.70
2019-01-25T08:47:56.231Z,21.60
2019-01-25T08:50:28.995Z,22.67
2019-01-25T08:53:01.392Z,20.17
2019-01-25T08:55:31.334Z,18.80
2019-01-25T08:58:01.258Z,17.30
2019-01-25T09:00:31.457Z,22.17
2019-01-25T09:03:12.521Z,19.03
2019-01-25T09:05:48.273Z,20.83
2019-01-25T09:08:20.270Z,18.77
2019-01-25T09:10:52.078Z,22.93
2019-01-25T09:13:22.612Z,21.93
2019-01-25T09:15:52.852Z,21.37
2019-01-25T09:18:22.966Z,23.93
2019-01-25T09:20:53.240Z,23.03
2019-01-25T09:23:23.971Z,21.10
2019-01-25T09:26:00.940Z,20.17
2019-01-25T09:28:59.103Z,26.23
2019-01-25T09:31:31.147Z,19.87
2019-01-25T09:34:03.828Z,20.30
2019-01-25T09:36:37.062Z,18.73
2019-01-25T09:39:09.896Z,19.73
2019-01-25T09:41:39.807Z,21.73
2019-01-25T09:44:10.452Z,21.17
2019-01-25T09:46:40.683Z,20.27
2019-01-25T09:49:10.518Z,16.63
2019-01-25T09:51:47.203Z,36.40
2019-01-25T09:54:18.923Z,20.83
2019-01-25T09:56:54.161Z,17.03
2019-01-25T09:59:24.340Z,18.77
2019-01-25T10:01:55.468Z,18.63
2019-01-25T10:04:25.766Z,18.90
2019-01-25T10:06:58.477Z,19.10
2019-01-25T10:09:28.481Z,15.60
2019-01-25T10:11:58.292Z,16.10
2019-01-25T10:14:31.462Z,14.43
2019-01-25T10:17:02.506Z,15.77
2019-01-25T10:19:32.288Z,14.50
2019-01-25T10:22:02.097Z,19.80
2019-01-25T10:24:34.606Z,14.20
2019-01-25T10:27:10.470Z,18.37
2019-01-25T10:29:43.240Z,17.23
2019-01-25T10:32:19.133Z,20.33
2019-01-25T10:34:54.954Z,21.00
2019-01-25T10:37:25.035Z,17.23
2019-01-25T10:40:02.253Z,22.60
2019-01-25T10:42:32.496Z,19.30
2019-01-25T10:45:07.509Z,29.80
2019-01-25T10:47:50.047Z,28.97
2019-01-25T10:50:20.247Z,28.07
2019-01-25T10:52:53.500Z,20.47
2019-01-25T10:55:23.659Z,16.10
2019-01-25T10:57:59.896Z,17.00
2019-01-25T11:00:45.147Z,19.43
2019-01-25T11:03:05.555Z,19.90
2019-01-25T11:05:35.580Z,18.80
2019-01-25T11:08:06.050Z,19.27
2019-01-25T11:10:45.952Z,22.97
2019-01-25T11:13:16.026Z,19.93
2019-01-25T11:15:49.865Z,25.00
2019-01-25T11:18:28.901Z,23.07
2019-01-25T11:20:59.451Z,22.23
2019-01-25T11:23:29.303Z,24.30
2019-01-25T11:26:04.602Z,25.93
2019-01-25T11:28:35.905Z,23.50
2019-01-25T11:31:08.115Z,22.67
2019-01-25T11:33:56.399Z,26.60
2019-01-25T11:36:29.399Z,28.60
2019-01-25T11:39:09.787Z,28.83
2019-01-25T11:41:39.785Z,26.50
2019-01-25T11:44:32.001Z,27.27
2019-01-25T11:47:02.445Z,26.80
2019-01-25T11:49:32.668Z,30.57
2019-01-25T11:52:03.019Z,28.87
2019-01-25T11:54:35.746Z,32.53
2019-01-25T11:57:05.800Z,31.63
2019-01-25T11:59:35.996Z,28.23
2019-01-25T12:02:06.681Z,29.23
2019-01-25T12:04:37.497Z,35.20
2019-01-25T12:07:07.695Z,30.07
2019-01-25T12:09:42.461Z,30.00
2019-01-25T12:12:16.045Z,31.03
2019-01-25T12:14:46.004Z,31.83
2019-01-25T12:17:18.499Z,33.20
2019-01-25T12:19:49.016Z,27.80
2019-01-25T12:22:19.154Z,35.57
2019-01-25T12:24:49.341Z,31.97
2019-01-25T12:27:20.938Z,28.37
2019-01-25T12:29:54.358Z,30.90
2019-01-25T12:32:34.331Z,33.27
2019-01-25T12:35:08.520Z,31.70
2019-01-25T12:37:39.099Z,26.23
2019-01-25T12:40:11.563Z,32.53
2019-01-25T12:42:42.825Z,39.17
2019-01-25T12:45:24.706Z,29.30
2019-01-25T12:47:54.953Z,46.50
2019-01-25T12:50:59.674Z,43.67
2019-01-25T12:53:30.183Z,45.80
2019-01-25T12:56:01.406Z,28.90
2019-01-25T12:58:39.029Z,35.13
2019-01-25T13:01:12.428Z,39.87
2019-01-25T13:03:42.339Z,27.03
2019-01-25T13:06:16.001Z,34.43
2019-01-25T13:08:48.290Z,38.87
2019-01-25T13:11:18.509Z,32.87
2019-01-25T13:13:57.557Z,38.23
2019-01-25T13:16:31.789Z,43.07
2019-01-25T13:19:02.187Z,25.17
2019-01-25T13:21:32.562Z,27.07
2019-01-25T13:24:03.850Z,21.67
2019-01-25T13:26:40.604Z,18.07
2019-01-25T13:29:14.196Z,19.47
2019-01-25T13:31:44.432Z,17.93
2019-01-25T13:34:20.037Z,18.20
2019-01-25T13:36:57.671Z,18.67
2019-01-25T13:39:27.875Z,18.40
2019-01-25T13:42:00.200Z,16.87
2019-01-25T13:44:30.816Z,17.27
2019-01-25T13:47:02.469Z,19.17
2019-01-25T13:49:37.450Z,16.90
2019-01-25T13:52:15.841Z,17.40
2019-01-25T13:54:49.684Z,17.27
2019-01-25T13:57:19.791Z,17.73
2019-01-25T13:59:52.336Z,16.40
2019-01-25T14:02:24.098Z,16.00
2019-01-25T14:04:54.436Z,18.60
2019-01-25T14:07:26.544Z,17.30
2019-01-25T14:09:56.631Z,19.93
2019-01-25T14:12:26.735Z,22.00
2019-01-25T14:14:56.766Z,21.53
2019-01-25T14:17:27.692Z,25.10
2019-01-25T14:19:57.722Z,24.50
2019-01-25T14:22:30.759Z,21.00
2019-01-25T14:25:14.439Z,21.30
2019-01-25T14:27:44.399Z,19.63
2019-01-25T14:30:29.390Z,21.70
2019-01-25T14:33:01.809Z,21.93
2019-01-25T14:35:31.808Z,19.93
2019-01-25T14:38:04.540Z,18.23
2019-01-25T14:40:43.438Z,16.30
2019-01-25T14:47:00.065Z,16.57
2019-01-25T14:49:46.953Z,17.40
2019-01-25T14:52:20.812Z,16.97
2019-01-25T14:55:10.075Z,16.03
2019-01-25T14:57:44.699Z,16.30
2019-01-25T15:00:15.595Z,17.10
2019-01-25T15:06:26.327Z,19.53
2019-01-25T15:08:57.869Z,20.10
2019-01-25T15:11:30.741Z,15.57
2019-01-25T15:18:08.513Z,14.90
2019-01-25T15:20:45.909Z,12.93
2019-01-25T15:23:24.371Z,12.53
2019-01-25T15:26:39.922Z,15.93
2019-01-25T15:29:54.372Z,23.33
2019-01-25T15:43:19.489Z,16.10
2019-01-25T15:46:23.658Z,13.93
2019-01-25T15:48:59.756Z,13.40
2019-01-25T15:52:28.425Z,12.97
2019-01-25T15:54:53.357Z,13.20
2019-01-25T15:57:41.376Z,12.33
2019-01-25T16:00:29.836Z,14.23
2019-01-25T16:03:39.120Z,13.23
2019-01-25T16:07:01.658Z,10.50
2019-01-25T16:10:01.268Z,13.03
2019-01-25T16:13:27.704Z,11.87
2019-01-25T16:16:10.935Z,12.17
2019-01-25T16:18:52.138Z,13.77
2019-01-25T16:25:56.398Z,12.37
2019-01-25T16:32:15.903Z,10.83
2019-01-25T16:38:58.528Z,12.20
2019-01-25T16:42:03.202Z,11.77
2019-01-25T16:44:46.709Z,13.00
2019-01-25T16:47:29.065Z,13.87
2019-01-25T16:50:29.559Z,14.50
2019-01-25T16:56:10.327Z,14.10
2019-01-25T16:58:43.545Z,13.53
2019-01-25T17:01:13.784Z,16.20
2019-01-25T17:03:51.239Z,15.87
2019-01-25T17:06:43.184Z,18.67
2019-01-25T17:09:20.283Z,15.13
2019-01-25T17:11:50.072Z,18.40
2019-01-25T17:14:33.579Z,17.83
2019-01-25T17:17:01.356Z,16.67
2019-01-25T17:19:32.133Z,15.77
2019-01-25T17:22:04.063Z,15.47
2019-01-25T17:24:34.132Z,17.93
2019-01-25T17:27:05.774Z,15.80
2019-01-25T17:29:43.945Z,16.03
2019-01-25T17:32:18.382Z,17.13
2019-01-25T17:34:52.904Z,17.70
2019-01-25T17:37:28.433Z,17.57
2019-01-25T17:39:59.734Z,16.60
2019-01-25T17:42:39.609Z,18.90
2019-01-25T17:45:13.258Z,17.37
2019-01-25T17:47:44.349Z,17.17
2019-01-25T17:50:14.568Z,17.23
2019-01-25T17:52:50.744Z,18.07
2019-01-25T17:55:26.069Z,16.67
2019-01-25T17:58:08.036Z,22.27
2019-01-25T18:00:56.712Z,19.07
2019-01-25T18:03:34.032Z,21.77
2019-01-25T18:06:07.793Z,16.93
2019-01-25T18:08:53.758Z,16.33
2019-01-25T18:11:27.512Z,17.10
2019-01-25T18:13:57.889Z,16.07
2019-01-25T18:16:40.488Z,17.00
2019-01-25T18:19:22.803Z,15.93
2019-01-25T18:26:05.318Z,16.37
2019-01-25T18:28:56.762Z,18.87
2019-01-25T18:31:34.986Z,18.90
2019-01-25T18:34:04.884Z,15.73
2019-01-25T18:36:34.626Z,17.23
2019-01-25T18:39:11.154Z,16.60
2019-01-25T18:41:47.739Z,18.40
2019-01-25T18:44:30.662Z,14.87
2019-01-25T18:47:00.516Z,17.03
2019-01-25T18:49:30.262Z,20.10
2019-01-25T18:52:01.460Z,19.77
2019-01-25T18:54:32.483Z,19.07
2019-01-25T18:57:02.188Z,20.57
2019-01-25T18:59:37.254Z,24.10
2019-01-25T19:02:09.565Z,24.07
2019-01-25T19:04:45.216Z,29.37
2019-01-25T19:07:18.531Z,24.10
2019-01-25T19:09:48.582Z,24.73
2019-01-25T19:12:24.417Z,18.23
2019-01-25T19:14:54.197Z,17.73
2019-01-25T19:17:27.053Z,27.13
2019-01-25T19:19:57.113Z,25.70
2019-01-25T19:22:34.257Z,20.50
2019-01-25T19:25:04.449Z,22.43
2019-01-25T19:27:36.748Z,19.80
2019-01-25T19:30:33.217Z,19.93
2019-01-25T19:33:03.271Z,23.27
2019-01-25T19:35:36.959Z,22.77
2019-01-25T19:38:08.603Z,32.63
2019-01-25T19:40:46.106Z,22.27
2019-01-25T19:46:16.591Z,16.70
2019-01-25T19:48:56.584Z,18.00
2019-01-25T19:51:29.528Z,18.90
2019-01-25T19:54:30.372Z,30.70
2019-01-25T19:57:03.022Z,18.23
2019-01-25T19:59:48.500Z,23.73
2019-01-25T20:02:19.627Z,23.20
2019-01-25T20:04:52.244Z,18.40
2019-01-25T20:07:22.020Z,20.60
2019-01-25T20:09:58.091Z,34.30
2019-01-25T20:12:28.937Z,24.43
2019-01-25T20:14:59.485Z,21.50
2019-01-25T20:17:46.106Z,21.13
2019-01-25T20:20:18.623Z,19.53
2019-01-25T20:22:48.195Z,19.30
2019-01-25T20:25:41.800Z,17.67
2019-01-25T20:28:12.051Z,16.03
2019-01-25T20:41:47.740Z,18.83
2019-01-25T20:44:20.586Z,16.67
2019-01-25T20:46:55.087Z,16.27
2019-01-25T20:49:27.596Z,18.70
2019-01-25T20:52:01.727Z,16.93
2019-01-25T20:54:33.419Z,18.33
2019-01-25T20:57:08.437Z,17.47
2019-01-25T20:59:44.393Z,17.83
2019-01-25T21:02:21.860Z,18.17
2019-01-25T21:04:54.548Z,16.83
2019-01-25T21:07:24.770Z,16.63
2019-01-25T21:09:58.667Z,17.53
2019-01-25T21:12:28.574Z,15.73
2019-01-25T21:14:58.425Z,15.90
2019-01-25T21:17:28.783Z,16.60
2019-01-25T21:20:02.874Z,18.80
2019-01-25T21:22:38.357Z,16.63
2019-01-25T21:25:12.045Z,17.23
2019-01-25T21:27:46.528Z,15.90
2019-01-25T21:30:33.740Z,17.17
2019-01-25T21:33:14.185Z,14.77
2019-01-25T21:35:46.326Z,14.00
2019-01-25T21:38:16.427Z,14.13
2019-01-25T21:40:48.361Z,15.37
2019-01-25T21:43:26.186Z,15.47
2019-01-25T21:46:02.194Z,15.70
2019-01-25T21:48:33.786Z,14.60
2019-01-25T21:51:11.052Z,13.13
2019-01-25T21:53:47.238Z,13.20
2019-01-25T21:56:17.321Z,15.47
2019-01-25T21:58:48.138Z,13.67
2019-01-25T22:01:18.013Z,13.70
2019-01-25T22:04:15.956Z,14.60
2019-01-25T22:06:59.580Z,13.37
2019-01-25T22:09:48.624Z,14.37
2019-01-25T22:12:20.006Z,12.20
2019-01-25T22:14:51.909Z,12.70
2019-01-25T22:17:33.312Z,16.43
2019-01-25T22:20:10.891Z,13.90
2019-01-25T22:22:36.521Z,18.70
2019-01-25T22:25:07.414Z,23.33
2019-01-25T22:27:43.192Z,15.67
2019-01-25T22:30:19.093Z,15.33
2019-01-25T22:32:51.209Z,14.27
2019-01-25T22:35:21.518Z,14.27
2019-01-25T22:37:54.680Z,15.67
2019-01-25T22:40:33.430Z,13.30
2019-01-25T22:43:05.739Z,12.70
2019-01-25T22:45:42.012Z,13.40
2019-01-25T22:48:14.684Z,14.20
2019-01-25T22:50:45.027Z,15.37
2019-01-25T22:53:18.009Z,13.93
2019-01-25T22:55:53.065Z,17.00
2019-01-25T22:58:24.420Z,13.20
2019-01-25T23:01:37.124Z,13.30
2019-01-25T23:04:30.416Z,19.07
2019-01-25T23:07:15.988Z,13.77
2019-01-25T23:10:00.608Z,14.50
2019-01-25T23:12:30.965Z,15.20
2019-01-25T23:15:02.574Z,12.20
2019-01-25T23:17:34.937Z,13.23
2019-01-25T23:22:43.600Z,13.33
2019-01-25T23:25:13.912Z,11.30
2019-01-25T23:27:47.861Z,12.80
2019-01-25T23:30:25.946Z,12.90
2019-01-25T23:32:57.091Z,12.60
2019-01-25T23:35:28.308Z,13.47
2019-01-25T23:37:59.371Z,12.60
2019-01-25T23:40:30.870Z,12.90
2019-01-25T23:43:00.697Z,14.67
2019-01-25T23:45:32.376Z,15.07
2019-01-25T23:48:06.346Z,17.03
2019-01-25T23:50:39.053Z,15.33
2019-01-25T23:53:11.053Z,16.23
2019-01-25T23:55:41.205Z,14.47
2019-01-25T23:58:15.324Z,16.87
